sensor_id;sensor_type;location;lat;lon;timestamp;temperature;humidity
69944;DHT22;57257;48.408;-4.498;2022-07-23T00:00:48;19.43;59.06
69944;DHT22;57257;48.408;-4.498;2022-07-23T00:03:13;19.46;58.84
69944;DHT22;57257;48.408;-4.498;2022-07-23T00:05:39;19.46;58.76
69944;DHT22;57257;48.408;-4.498;2022-07-23T00:08:06;19.49;58.78
69944;DHT22;57257;48.408;-4.498;2022-07-23T00:10:32;19.47;58.86
69944;DHT22;57257;48.408;-4.498;2022-07-23T00:12:57;19.44;59.15
69944;DHT22;57257;48.408;-4.498;2022-07-23T00:15:23;19.41;59.02
69944;DHT22;57257;48.408;-4.498;2022-07-23T00:17:49;19.40;59.12
69944;DHT22;57257;48.408;-4.498;2022-07-23T00:20:14;19.37;59.33
69944;DHT22;57257;48.408;-4.498;2022-07-23T00:22:51;19.34;59.58
69944;DHT22;57257;48.408;-4.498;2022-07-23T00:25:16;19.37;59.36
69944;DHT22;57257;48.408;-4.498;2022-07-23T00:27:42;19.38;59.41
69944;DHT22;57257;48.408;-4.498;2022-07-23T00:30:09;19.38;59.48
69944;DHT22;57257;48.408;-4.498;2022-07-23T00:32:49;19.38;59.77
69944;DHT22;57257;48.408;-4.498;2022-07-23T00:35:15;19.38;59.63
69944;DHT22;57257;48.408;-4.498;2022-07-23T00:37:41;19.38;59.72
69944;DHT22;57257;48.408;-4.498;2022-07-23T00:40:07;19.34;59.84
69944;DHT22;57257;48.408;-4.498;2022-07-23T00:42:33;19.37;59.82
69944;DHT22;57257;48.408;-4.498;2022-07-23T00:44:58;19.33;59.68
69944;DHT22;57257;48.408;-4.498;2022-07-23T00:47:23;19.34;59.84
69944;DHT22;57257;48.408;-4.498;2022-07-23T00:49:49;19.36;60.01
69944;DHT22;57257;48.408;-4.498;2022-07-23T00:52:14;19.37;59.72
69944;DHT22;57257;48.408;-4.498;2022-07-23T00:54:41;19.33;60.01
69944;DHT22;57257;48.408;-4.498;2022-07-23T00:57:06;19.31;59.94
69944;DHT22;57257;48.408;-4.498;2022-07-23T00:59:32;19.30;59.94
69944;DHT22;57257;48.408;-4.498;2022-07-23T01:01:57;19.28;60.00
69944;DHT22;57257;48.408;-4.498;2022-07-23T01:04:22;19.28;60.15
69944;DHT22;57257;48.408;-4.498;2022-07-23T01:06:48;19.31;60.12
69944;DHT22;57257;48.408;-4.498;2022-07-23T01:09:13;19.31;60.49
69944;DHT22;57257;48.408;-4.498;2022-07-23T01:11:40;19.30;60.18
69944;DHT22;57257;48.408;-4.498;2022-07-23T01:14:13;19.33;60.39
69944;DHT22;57257;48.408;-4.498;2022-07-23T01:16:39;19.30;60.65
69944;DHT22;57257;48.408;-4.498;2022-07-23T01:19:05;19.22;61.05
69944;DHT22;57257;48.408;-4.498;2022-07-23T01:21:34;19.10;61.13
69944;DHT22;57257;48.408;-4.498;2022-07-23T01:24:01;19.07;61.18
69944;DHT22;57257;48.408;-4.498;2022-07-23T01:26:26;19.04;61.39
69944;DHT22;57257;48.408;-4.498;2022-07-23T01:28:52;19.06;61.24
69944;DHT22;57257;48.408;-4.498;2022-07-23T01:31:17;19.07;61.66
69944;DHT22;57257;48.408;-4.498;2022-07-23T01:33:44;19.06;61.36
69944;DHT22;57257;48.408;-4.498;2022-07-23T01:36:10;19.04;61.36
69944;DHT22;57257;48.408;-4.498;2022-07-23T01:38:35;19.09;61.50
69944;DHT22;57257;48.408;-4.498;2022-07-23T01:41:00;19.13;61.62
69944;DHT22;57257;48.408;-4.498;2022-07-23T01:43:26;19.12;61.66
69944;DHT22;57257;48.408;-4.498;2022-07-23T01:45:51;19.09;61.68
69944;DHT22;57257;48.408;-4.498;2022-07-23T01:48:17;19.06;61.70
69944;DHT22;57257;48.408;-4.498;2022-07-23T01:50:42;19.04;61.85
69944;DHT22;57257;48.408;-4.498;2022-07-23T01:53:07;19.04;61.85
69944;DHT22;57257;48.408;-4.498;2022-07-23T01:55:33;19.03;61.79
69944;DHT22;57257;48.408;-4.498;2022-07-23T01:57:58;19.03;62.10
69944;DHT22;57257;48.408;-4.498;2022-07-23T02:00:24;19.04;61.94
69944;DHT22;57257;48.408;-4.498;2022-07-23T02:02:49;19.04;62.03
69944;DHT22;57257;48.408;-4.498;2022-07-23T02:05:15;19.03;62.03
69944;DHT22;57257;48.408;-4.498;2022-07-23T02:07:40;19.00;62.18
69944;DHT22;57257;48.408;-4.498;2022-07-23T02:10:07;18.99;62.18
69944;DHT22;57257;48.408;-4.498;2022-07-23T02:12:33;18.99;62.29
69944;DHT22;57257;48.408;-4.498;2022-07-23T02:14:58;19.03;62.29
69944;DHT22;57257;48.408;-4.498;2022-07-23T02:17:24;19.00;62.22
69944;DHT22;57257;48.408;-4.498;2022-07-23T02:19:49;18.99;62.50
69944;DHT22;57257;48.408;-4.498;2022-07-23T02:22:14;18.99;62.39
69944;DHT22;57257;48.408;-4.498;2022-07-23T02:24:40;18.99;62.34
69944;DHT22;57257;48.408;-4.498;2022-07-23T02:27:05;19.02;62.38
69944;DHT22;57257;48.408;-4.498;2022-07-23T02:29:31;19.02;62.44
69944;DHT22;57257;48.408;-4.498;2022-07-23T02:31:56;19.04;62.37
69944;DHT22;57257;48.408;-4.498;2022-07-23T02:34:21;19.04;62.38
69944;DHT22;57257;48.408;-4.498;2022-07-23T02:36:47;19.13;62.33
69944;DHT22;57257;48.408;-4.498;2022-07-23T02:39:12;19.16;62.37
69944;DHT22;57257;48.408;-4.498;2022-07-23T02:41:38;19.17;62.35
69944;DHT22;57257;48.408;-4.498;2022-07-23T02:44:03;19.14;62.27
69944;DHT22;57257;48.408;-4.498;2022-07-23T02:46:29;19.12;62.27
69944;DHT22;57257;48.408;-4.498;2022-07-23T02:48:54;19.12;62.61
69944;DHT22;57257;48.408;-4.498;2022-07-23T02:51:19;19.10;62.41
69944;DHT22;57257;48.408;-4.498;2022-07-23T02:53:45;19.10;62.45
69944;DHT22;57257;48.408;-4.498;2022-07-23T02:56:10;19.07;62.44
69944;DHT22;57257;48.408;-4.498;2022-07-23T02:58:36;19.07;62.57
69944;DHT22;57257;48.408;-4.498;2022-07-23T03:01:01;19.07;62.54
69944;DHT22;57257;48.408;-4.498;2022-07-23T03:03:27;19.09;62.46
69944;DHT22;57257;48.408;-4.498;2022-07-23T03:05:52;19.10;62.46
69944;DHT22;57257;48.408;-4.498;2022-07-23T03:08:17;19.10;62.62
69944;DHT22;57257;48.408;-4.498;2022-07-23T03:10:43;19.09;62.54
69944;DHT22;57257;48.408;-4.498;2022-07-23T03:13:08;19.02;62.72
69944;DHT22;57257;48.408;-4.498;2022-07-23T03:15:34;19.04;62.82
69944;DHT22;57257;48.408;-4.498;2022-07-23T03:17:59;19.06;62.89
69944;DHT22;57257;48.408;-4.498;2022-07-23T03:20:24;19.06;62.83
69944;DHT22;57257;48.408;-4.498;2022-07-23T03:22:50;19.04;62.87
69944;DHT22;57257;48.408;-4.498;2022-07-23T03:25:15;19.09;62.91
69944;DHT22;57257;48.408;-4.498;2022-07-23T03:27:41;19.04;63.00
69944;DHT22;57257;48.408;-4.498;2022-07-23T03:30:07;19.07;63.01
69944;DHT22;57257;48.408;-4.498;2022-07-23T03:32:32;19.06;63.12
69944;DHT22;57257;48.408;-4.498;2022-07-23T03:34:57;19.10;63.02
69944;DHT22;57257;48.408;-4.498;2022-07-23T03:37:23;19.09;63.03
69944;DHT22;57257;48.408;-4.498;2022-07-23T03:39:49;19.06;63.10
69944;DHT22;57257;48.408;-4.498;2022-07-23T03:42:14;19.04;63.22
69944;DHT22;57257;48.408;-4.498;2022-07-23T03:44:40;19.02;63.44
69944;DHT22;57257;48.408;-4.498;2022-07-23T03:47:05;18.99;63.35
69944;DHT22;57257;48.408;-4.498;2022-07-23T03:49:31;18.99;63.47
69944;DHT22;57257;48.408;-4.498;2022-07-23T03:51:57;18.98;63.63
69944;DHT22;57257;48.408;-4.498;2022-07-23T03:54:22;19.02;63.61
69944;DHT22;57257;48.408;-4.498;2022-07-23T03:56:48;19.03;63.61
69944;DHT22;57257;48.408;-4.498;2022-07-23T03:59:13;19.07;63.53
69944;DHT22;57257;48.408;-4.498;2022-07-23T04:01:39;19.04;63.57
69944;DHT22;57257;48.408;-4.498;2022-07-23T04:04:04;19.03;63.64
69944;DHT22;57257;48.408;-4.498;2022-07-23T04:06:30;19.02;63.81
69944;DHT22;57257;48.408;-4.498;2022-07-23T04:08:55;19.02;63.90
69944;DHT22;57257;48.408;-4.498;2022-07-23T04:11:21;19.02;63.87
69944;DHT22;57257;48.408;-4.498;2022-07-23T04:13:46;19.04;64.12
69944;DHT22;57257;48.408;-4.498;2022-07-23T04:16:12;19.06;64.09
69944;DHT22;57257;48.408;-4.498;2022-07-23T04:18:38;19.00;64.01
69944;DHT22;57257;48.408;-4.498;2022-07-23T04:21:03;19.04;64.07
69944;DHT22;57257;48.408;-4.498;2022-07-23T04:23:29;19.03;64.11
69944;DHT22;57257;48.408;-4.498;2022-07-23T04:25:54;19.04;64.07
69944;DHT22;57257;48.408;-4.498;2022-07-23T04:28:20;19.07;63.97
69944;DHT22;57257;48.408;-4.498;2022-07-23T04:30:45;19.07;63.91
69944;DHT22;57257;48.408;-4.498;2022-07-23T04:33:10;19.06;63.94
69944;DHT22;57257;48.408;-4.498;2022-07-23T04:35:36;19.04;63.96
69944;DHT22;57257;48.408;-4.498;2022-07-23T04:38:02;19.04;63.92
69944;DHT22;57257;48.408;-4.498;2022-07-23T04:40:28;19.04;64.03
69944;DHT22;57257;48.408;-4.498;2022-07-23T04:42:54;19.04;64.03
69944;DHT22;57257;48.408;-4.498;2022-07-23T04:45:19;19.04;64.04
69944;DHT22;57257;48.408;-4.498;2022-07-23T04:47:45;19.03;64.15
69944;DHT22;57257;48.408;-4.498;2022-07-23T04:50:10;19.00;64.26
69944;DHT22;57257;48.408;-4.498;2022-07-23T04:52:36;19.03;64.23
69944;DHT22;57257;48.408;-4.498;2022-07-23T04:55:02;19.04;64.44
69944;DHT22;57257;48.408;-4.498;2022-07-23T04:57:27;19.07;64.25
69944;DHT22;57257;48.408;-4.498;2022-07-23T04:59:52;19.12;64.27
69944;DHT22;57257;48.408;-4.498;2022-07-23T05:02:18;19.16;64.26
69944;DHT22;57257;48.408;-4.498;2022-07-23T05:04:43;19.23;64.32
69944;DHT22;57257;48.408;-4.498;2022-07-23T05:07:09;19.23;64.29
69944;DHT22;57257;48.408;-4.498;2022-07-23T05:09:34;19.24;64.35
69944;DHT22;57257;48.408;-4.498;2022-07-23T05:12:00;19.24;64.13
69944;DHT22;57257;48.408;-4.498;2022-07-23T05:14:25;19.26;64.32
69944;DHT22;57257;48.408;-4.498;2022-07-23T05:16:51;19.27;64.28
69944;DHT22;57257;48.408;-4.498;2022-07-23T05:19:17;19.30;64.23
69944;DHT22;57257;48.408;-4.498;2022-07-23T05:21:42;19.36;64.17
69944;DHT22;57257;48.408;-4.498;2022-07-23T05:24:08;19.38;64.12
69944;DHT22;57257;48.408;-4.498;2022-07-23T05:26:33;19.38;64.18
69944;DHT22;57257;48.408;-4.498;2022-07-23T05:28:59;19.40;64.14
69944;DHT22;57257;48.408;-4.498;2022-07-23T05:31:24;19.40;64.37
69944;DHT22;57257;48.408;-4.498;2022-07-23T05:33:50;19.44;64.43
69944;DHT22;57257;48.408;-4.498;2022-07-23T05:36:15;19.47;64.55
69944;DHT22;57257;48.408;-4.498;2022-07-23T05:38:41;19.58;64.44
69944;DHT22;57257;48.408;-4.498;2022-07-23T05:41:06;19.63;64.31
69944;DHT22;57257;48.408;-4.498;2022-07-23T05:43:31;19.67;64.24
69944;DHT22;57257;48.408;-4.498;2022-07-23T05:45:57;19.68;64.50
69944;DHT22;57257;48.408;-4.498;2022-07-23T05:48:22;19.70;64.64
69944;DHT22;57257;48.408;-4.498;2022-07-23T05:50:48;19.74;64.59
69944;DHT22;57257;48.408;-4.498;2022-07-23T05:53:13;19.77;64.88
69944;DHT22;57257;48.408;-4.498;2022-07-23T05:55:39;19.78;64.66
69944;DHT22;57257;48.408;-4.498;2022-07-23T05:58:04;19.85;64.78
69944;DHT22;57257;48.408;-4.498;2022-07-23T06:00:30;19.84;64.86
69944;DHT22;57257;48.408;-4.498;2022-07-23T06:02:56;19.84;65.00
69944;DHT22;57257;48.408;-4.498;2022-07-23T06:05:21;19.90;64.99
69944;DHT22;57257;48.408;-4.498;2022-07-23T06:07:47;19.94;64.79
69944;DHT22;57257;48.408;-4.498;2022-07-23T06:10:12;19.92;65.10
69944;DHT22;57257;48.408;-4.498;2022-07-23T06:12:38;19.92;65.07
69944;DHT22;57257;48.408;-4.498;2022-07-23T06:15:04;19.92;65.34
69944;DHT22;57257;48.408;-4.498;2022-07-23T06:17:29;19.92;65.31
69944;DHT22;57257;48.408;-4.498;2022-07-23T06:19:55;20.01;65.23
69944;DHT22;57257;48.408;-4.498;2022-07-23T06:22:21;20.08;65.26
69944;DHT22;57257;48.408;-4.498;2022-07-23T06:24:47;20.18;65.08
69944;DHT22;57257;48.408;-4.498;2022-07-23T06:27:12;20.22;65.24
69944;DHT22;57257;48.408;-4.498;2022-07-23T06:29:38;20.24;65.05
69944;DHT22;57257;48.408;-4.498;2022-07-23T06:32:06;20.29;64.97
69944;DHT22;57257;48.408;-4.498;2022-07-23T06:34:32;20.33;64.95
69944;DHT22;57257;48.408;-4.498;2022-07-23T06:36:57;20.35;64.98
69944;DHT22;57257;48.408;-4.498;2022-07-23T06:39:23;20.39;64.84
69944;DHT22;57257;48.408;-4.498;2022-07-23T06:41:48;20.36;65.00
69944;DHT22;57257;48.408;-4.498;2022-07-23T06:44:14;20.42;64.94
69944;DHT22;57257;48.408;-4.498;2022-07-23T06:46:39;20.43;64.84
69944;DHT22;57257;48.408;-4.498;2022-07-23T06:49:04;20.45;64.86
69944;DHT22;57257;48.408;-4.498;2022-07-23T06:51:30;20.49;64.80
69944;DHT22;57257;48.408;-4.498;2022-07-23T06:53:56;20.53;64.90
69944;DHT22;57257;48.408;-4.498;2022-07-23T06:56:21;20.59;64.72
69944;DHT22;57257;48.408;-4.498;2022-07-23T06:58:47;20.61;64.61
69944;DHT22;57257;48.408;-4.498;2022-07-23T07:01:12;20.62;64.65
69944;DHT22;57257;48.408;-4.498;2022-07-23T07:03:37;20.62;64.78
69944;DHT22;57257;48.408;-4.498;2022-07-23T07:06:03;20.62;64.94
69944;DHT22;57257;48.408;-4.498;2022-07-23T07:08:28;20.69;64.88
69944;DHT22;57257;48.408;-4.498;2022-07-23T07:10:54;20.76;64.96
69944;DHT22;57257;48.408;-4.498;2022-07-23T07:13:19;20.75;65.13
69944;DHT22;57257;48.408;-4.498;2022-07-23T07:15:45;20.79;65.00
69944;DHT22;57257;48.408;-4.498;2022-07-23T07:18:10;20.83;64.72
69944;DHT22;57257;48.408;-4.498;2022-07-23T07:20:36;20.83;64.97
69944;DHT22;57257;48.408;-4.498;2022-07-23T07:23:01;20.76;65.05
69944;DHT22;57257;48.408;-4.498;2022-07-23T07:25:26;20.75;65.19
69944;DHT22;57257;48.408;-4.498;2022-07-23T07:27:52;20.76;65.10
69944;DHT22;57257;48.408;-4.498;2022-07-23T07:30:17;20.79;65.06
69944;DHT22;57257;48.408;-4.498;2022-07-23T07:32:43;20.76;65.03
69944;DHT22;57257;48.408;-4.498;2022-07-23T07:35:09;20.75;65.07
69944;DHT22;57257;48.408;-4.498;2022-07-23T07:37:35;20.79;65.17
69944;DHT22;57257;48.408;-4.498;2022-07-23T07:40:00;20.85;65.00
69944;DHT22;57257;48.408;-4.498;2022-07-23T07:42:26;20.89;65.08
69944;DHT22;57257;48.408;-4.498;2022-07-23T07:44:51;21.03;64.69
69944;DHT22;57257;48.408;-4.498;2022-07-23T07:47:17;21.13;63.83
69944;DHT22;57257;48.408;-4.498;2022-07-23T07:49:43;21.10;63.44
69944;DHT22;57257;48.408;-4.498;2022-07-23T07:52:09;21.03;63.31
69944;DHT22;57257;48.408;-4.498;2022-07-23T07:54:34;21.02;63.42
69944;DHT22;57257;48.408;-4.498;2022-07-23T07:57:00;20.93;63.44
69944;DHT22;57257;48.408;-4.498;2022-07-23T07:59:25;20.87;63.53
69944;DHT22;57257;48.408;-4.498;2022-07-23T08:01:51;20.86;63.69
69944;DHT22;57257;48.408;-4.498;2022-07-23T08:04:17;20.82;63.88
69944;DHT22;57257;48.408;-4.498;2022-07-23T08:06:42;20.87;63.80
69944;DHT22;57257;48.408;-4.498;2022-07-23T08:09:08;20.95;63.74
69944;DHT22;57257;48.408;-4.498;2022-07-23T08:11:33;21.02;63.39
69944;DHT22;57257;48.408;-4.498;2022-07-23T08:13:59;21.13;63.20
69944;DHT22;57257;48.408;-4.498;2022-07-23T08:16:25;21.27;62.73
69944;DHT22;57257;48.408;-4.498;2022-07-23T08:18:50;21.26;62.06
69944;DHT22;57257;48.408;-4.498;2022-07-23T08:21:15;21.22;62.02
69944;DHT22;57257;48.408;-4.498;2022-07-23T08:23:41;21.27;62.09
69944;DHT22;57257;48.408;-4.498;2022-07-23T08:26:06;21.27;61.98
69944;DHT22;57257;48.408;-4.498;2022-07-23T08:28:32;21.28;62.00
69944;DHT22;57257;48.408;-4.498;2022-07-23T08:30:59;21.40;61.86
69944;DHT22;57257;48.408;-4.498;2022-07-23T08:33:24;21.60;61.52
69944;DHT22;57257;48.408;-4.498;2022-07-23T08:35:50;21.70;61.16
69944;DHT22;57257;48.408;-4.498;2022-07-23T08:38:19;21.77;60.97
69944;DHT22;57257;48.408;-4.498;2022-07-23T08:40:47;21.75;61.04
69944;DHT22;57257;48.408;-4.498;2022-07-23T08:43:20;21.74;60.74
69944;DHT22;57257;48.408;-4.498;2022-07-23T08:45:48;21.60;61.00
69944;DHT22;57257;48.408;-4.498;2022-07-23T08:48:23;21.53;61.25
69944;DHT22;57257;48.408;-4.498;2022-07-23T08:50:53;21.55;61.15
69944;DHT22;57257;48.408;-4.498;2022-07-23T08:53:21;21.51;61.21
69944;DHT22;57257;48.408;-4.498;2022-07-23T08:55:48;21.57;61.29
69944;DHT22;57257;48.408;-4.498;2022-07-23T08:58:15;21.60;61.23
69944;DHT22;57257;48.408;-4.498;2022-07-23T09:00:41;21.54;61.43
69944;DHT22;57257;48.408;-4.498;2022-07-23T09:03:07;21.57;61.25
69944;DHT22;57257;48.408;-4.498;2022-07-23T09:05:32;21.68;60.82
69944;DHT22;57257;48.408;-4.498;2022-07-23T09:08:12;21.68;60.64
69944;DHT22;57257;48.408;-4.498;2022-07-23T09:15:56;21.68;60.93
69944;DHT22;57257;48.408;-4.498;2022-07-23T09:19:05;21.80;60.72
69944;DHT22;57257;48.408;-4.498;2022-07-23T09:21:38;21.87;60.50
69944;DHT22;57257;48.408;-4.498;2022-07-23T09:26:45;21.75;60.58
69944;DHT22;57257;48.408;-4.498;2022-07-23T09:29:18;21.65;60.86
69944;DHT22;57257;48.408;-4.498;2022-07-23T09:32:00;21.81;60.97
69944;DHT22;57257;48.408;-4.498;2022-07-23T09:34:34;22.16;60.04
69944;DHT22;57257;48.408;-4.498;2022-07-23T09:37:14;22.42;59.15
69944;DHT22;57257;48.408;-4.498;2022-07-23T09:39:40;22.53;58.82
69944;DHT22;57257;48.408;-4.498;2022-07-23T09:42:17;22.60;58.85
69944;DHT22;57257;48.408;-4.498;2022-07-23T09:44:50;22.63;58.33
69944;DHT22;57257;48.408;-4.498;2022-07-23T09:47:17;22.56;58.72
69944;DHT22;57257;48.408;-4.498;2022-07-23T09:52:37;22.87;58.41
69944;DHT22;57257;48.408;-4.498;2022-07-23T09:55:07;22.90;57.88
69944;DHT22;57257;48.408;-4.498;2022-07-23T09:57:33;22.72;57.82
69944;DHT22;57257;48.408;-4.498;2022-07-23T10:00:02;22.60;58.23
69944;DHT22;57257;48.408;-4.498;2022-07-23T10:02:31;22.38;58.56
69944;DHT22;57257;48.408;-4.498;2022-07-23T10:04:57;22.19;58.92
69944;DHT22;57257;48.408;-4.498;2022-07-23T10:07:25;22.12;59.10
69944;DHT22;57257;48.408;-4.498;2022-07-23T10:09:52;22.18;58.88
69944;DHT22;57257;48.408;-4.498;2022-07-23T10:12:18;22.25;59.06
69944;DHT22;57257;48.408;-4.498;2022-07-23T10:14:59;22.28;59.08
69944;DHT22;57257;48.408;-4.498;2022-07-23T10:17:25;22.36;59.19
69944;DHT22;57257;48.408;-4.498;2022-07-23T10:19:52;22.59;58.78
69944;DHT22;57257;48.408;-4.498;2022-07-23T10:22:26;22.82;58.01
69944;DHT22;57257;48.408;-4.498;2022-07-23T10:30:17;23.10;56.67
69944;DHT22;57257;48.408;-4.498;2022-07-23T10:33:01;23.07;56.26
69944;DHT22;57257;48.408;-4.498;2022-07-23T10:35:43;22.95;56.43
69944;DHT22;57257;48.408;-4.498;2022-07-23T10:38:30;22.87;56.20
69944;DHT22;57257;48.408;-4.498;2022-07-23T10:40:59;22.85;55.89
69944;DHT22;57257;48.408;-4.498;2022-07-23T10:43:25;23.04;55.39
69944;DHT22;57257;48.408;-4.498;2022-07-23T10:45:52;23.14;54.32
69944;DHT22;57257;48.408;-4.498;2022-07-23T10:48:23;23.28;53.68
69944;DHT22;57257;48.408;-4.498;2022-07-23T10:51:14;23.30;52.18
69944;DHT22;57257;48.408;-4.498;2022-07-23T10:59:22;23.30;48.76
69944;DHT22;57257;48.408;-4.498;2022-07-23T11:01:48;23.36;49.93
69944;DHT22;57257;48.408;-4.498;2022-07-23T11:04:13;23.36;50.79
69944;DHT22;57257;48.408;-4.498;2022-07-23T11:09:39;23.23;52.25
69944;DHT22;57257;48.408;-4.498;2022-07-23T11:17:23;23.18;54.29
69944;DHT22;57257;48.408;-4.498;2022-07-23T11:25:13;23.62;54.13
69944;DHT22;57257;48.408;-4.498;2022-07-23T11:27:43;23.74;54.28
69944;DHT22;57257;48.408;-4.498;2022-07-23T11:35:38;23.97;52.75
69944;DHT22;57257;48.408;-4.498;2022-07-23T11:38:06;23.92;52.65
69944;DHT22;57257;48.408;-4.498;2022-07-23T11:40:32;23.82;52.92
69944;DHT22;57257;48.408;-4.498;2022-07-23T11:43:00;23.88;53.65
69944;DHT22;57257;48.408;-4.498;2022-07-23T11:45:31;24.05;53.94
69944;DHT22;57257;48.408;-4.498;2022-07-23T11:47:57;24.06;53.74
69944;DHT22;57257;48.408;-4.498;2022-07-23T11:50:24;24.13;53.68
69944;DHT22;57257;48.408;-4.498;2022-07-23T11:52:51;24.18;53.62
69944;DHT22;57257;48.408;-4.498;2022-07-23T11:55:17;24.15;53.30
69944;DHT22;57257;48.408;-4.498;2022-07-23T11:57:42;24.25;53.02
69944;DHT22;57257;48.408;-4.498;2022-07-23T12:02:45;24.37;53.04
69944;DHT22;57257;48.408;-4.498;2022-07-23T12:05:16;24.42;53.13
69944;DHT22;57257;48.408;-4.498;2022-07-23T12:07:44;24.29;52.98
69944;DHT22;57257;48.408;-4.498;2022-07-23T12:12:57;24.25;53.83
69944;DHT22;57257;48.408;-4.498;2022-07-23T12:15:31;24.21;54.02
69944;DHT22;57257;48.408;-4.498;2022-07-23T12:17:59;24.37;53.86
69944;DHT22;57257;48.408;-4.498;2022-07-23T12:20:28;24.42;53.74
69944;DHT22;57257;48.408;-4.498;2022-07-23T12:22:59;24.32;53.86
69944;DHT22;57257;48.408;-4.498;2022-07-23T12:25:36;24.26;54.07
69944;DHT22;57257;48.408;-4.498;2022-07-23T12:30:45;24.52;53.67
69944;DHT22;57257;48.408;-4.498;2022-07-23T12:33:14;24.69;53.21
69944;DHT22;57257;48.408;-4.498;2022-07-23T12:35:45;24.73;53.29
69944;DHT22;57257;48.408;-4.498;2022-07-23T12:38:21;24.93;52.96
69944;DHT22;57257;48.408;-4.498;2022-07-23T12:43:28;24.99;52.34
69944;DHT22;57257;48.408;-4.498;2022-07-23T12:46:07;25.14;52.61
69944;DHT22;57257;48.408;-4.498;2022-07-23T12:51:27;25.58;51.51
69944;DHT22;57257;48.408;-4.498;2022-07-23T12:53:59;25.62;51.29
69944;DHT22;57257;48.408;-4.498;2022-07-23T12:56:34;25.57;50.82
69944;DHT22;57257;48.408;-4.498;2022-07-23T13:01:42;25.26;51.53
69944;DHT22;57257;48.408;-4.498;2022-07-23T13:06:43;25.54;51.32
69944;DHT22;57257;48.408;-4.498;2022-07-23T13:09:14;25.70;50.84
69944;DHT22;57257;48.408;-4.498;2022-07-23T13:11:40;25.80;50.89
69944;DHT22;57257;48.408;-4.498;2022-07-23T13:14:06;25.98;50.63
69944;DHT22;57257;48.408;-4.498;2022-07-23T13:16:32;26.14;49.86
69944;DHT22;57257;48.408;-4.498;2022-07-23T13:18:59;26.22;49.24
69944;DHT22;57257;48.408;-4.498;2022-07-23T13:21:26;26.01;49.25
69944;DHT22;57257;48.408;-4.498;2022-07-23T13:23:51;25.81;49.84
69944;DHT22;57257;48.408;-4.498;2022-07-23T13:26:17;25.77;49.93
69944;DHT22;57257;48.408;-4.498;2022-07-23T13:28:43;25.74;50.20
69944;DHT22;57257;48.408;-4.498;2022-07-23T13:31:09;25.82;50.26
69944;DHT22;57257;48.408;-4.498;2022-07-23T13:33:34;25.94;49.78
69944;DHT22;57257;48.408;-4.498;2022-07-23T13:36:00;25.99;49.16
69944;DHT22;57257;48.408;-4.498;2022-07-23T13:38:26;25.95;49.12
69944;DHT22;57257;48.408;-4.498;2022-07-23T13:40:52;26.02;49.00
69944;DHT22;57257;48.408;-4.498;2022-07-23T13:43:20;26.08;48.67
69944;DHT22;57257;48.408;-4.498;2022-07-23T13:45:46;25.96;48.93
69944;DHT22;57257;48.408;-4.498;2022-07-23T13:48:13;25.98;48.97
69944;DHT22;57257;48.408;-4.498;2022-07-23T13:50:39;26.02;49.02
69944;DHT22;57257;48.408;-4.498;2022-07-23T13:53:13;25.96;49.19
69944;DHT22;57257;48.408;-4.498;2022-07-23T13:55:40;26.06;49.12
69944;DHT22;57257;48.408;-4.498;2022-07-23T13:58:07;26.24;48.80
69944;DHT22;57257;48.408;-4.498;2022-07-23T14:00:35;26.35;48.64
69944;DHT22;57257;48.408;-4.498;2022-07-23T14:03:01;26.53;48.71
69944;DHT22;57257;48.408;-4.498;2022-07-23T14:05:27;26.76;47.54
69944;DHT22;57257;48.408;-4.498;2022-07-23T14:07:53;26.73;46.94
69944;DHT22;57257;48.408;-4.498;2022-07-23T14:10:21;26.53;47.58
69944;DHT22;57257;48.408;-4.498;2022-07-23T14:12:48;26.40;47.81
69944;DHT22;57257;48.408;-4.498;2022-07-23T14:15:14;26.22;48.04
69944;DHT22;57257;48.408;-4.498;2022-07-23T14:17:41;25.96;48.46
69944;DHT22;57257;48.408;-4.498;2022-07-23T14:20:08;25.74;49.46
69944;DHT22;57257;48.408;-4.498;2022-07-23T14:22:34;25.75;49.24
69944;DHT22;57257;48.408;-4.498;2022-07-23T14:25:00;25.61;49.75
69944;DHT22;57257;48.408;-4.498;2022-07-23T14:27:27;25.65;49.77
69944;DHT22;57257;48.408;-4.498;2022-07-23T14:29:53;25.70;49.90
69944;DHT22;57257;48.408;-4.498;2022-07-23T14:32:19;25.62;49.69
69944;DHT22;57257;48.408;-4.498;2022-07-23T14:34:45;25.42;50.43
69944;DHT22;57257;48.408;-4.498;2022-07-23T14:37:11;25.34;50.74
69944;DHT22;57257;48.408;-4.498;2022-07-23T14:39:37;25.04;51.13
69944;DHT22;57257;48.408;-4.498;2022-07-23T14:42:03;24.94;51.70
69944;DHT22;57257;48.408;-4.498;2022-07-23T14:44:29;24.80;52.22
69944;DHT22;57257;48.408;-4.498;2022-07-23T14:46:54;24.89;52.07
69944;DHT22;57257;48.408;-4.498;2022-07-23T14:49:20;24.75;52.00
69944;DHT22;57257;48.408;-4.498;2022-07-23T14:51:45;24.49;52.38
69944;DHT22;57257;48.408;-4.498;2022-07-23T14:54:11;24.39;52.93
69944;DHT22;57257;48.408;-4.498;2022-07-23T14:56:37;24.37;53.13
69944;DHT22;57257;48.408;-4.498;2022-07-23T14:59:05;24.28;53.21
69944;DHT22;57257;48.408;-4.498;2022-07-23T15:01:31;24.19;53.26
69944;DHT22;57257;48.408;-4.498;2022-07-23T15:03:56;24.02;53.97
69944;DHT22;57257;48.408;-4.498;2022-07-23T15:06:22;24.00;54.28
69944;DHT22;57257;48.408;-4.498;2022-07-23T15:08:47;23.86;54.36
69944;DHT22;57257;48.408;-4.498;2022-07-23T15:11:13;23.92;54.52
69944;DHT22;57257;48.408;-4.498;2022-07-23T15:13:38;23.95;54.27
69944;DHT22;57257;48.408;-4.498;2022-07-23T15:16:04;24.04;54.38
69944;DHT22;57257;48.408;-4.498;2022-07-23T15:18:30;24.06;54.17
69944;DHT22;57257;48.408;-4.498;2022-07-23T15:20:56;24.00;54.27
69944;DHT22;57257;48.408;-4.498;2022-07-23T15:23:21;24.09;54.35
69944;DHT22;57257;48.408;-4.498;2022-07-23T15:25:47;24.28;54.04
69944;DHT22;57257;48.408;-4.498;2022-07-23T15:28:13;24.25;53.55
69944;DHT22;57257;48.408;-4.498;2022-07-23T15:30:38;24.15;53.77
69944;DHT22;57257;48.408;-4.498;2022-07-23T15:33:05;24.12;53.88
69944;DHT22;57257;48.408;-4.498;2022-07-23T15:35:31;24.06;53.93
69944;DHT22;57257;48.408;-4.498;2022-07-23T15:37:57;23.97;54.06
69944;DHT22;57257;48.408;-4.498;2022-07-23T15:40:22;24.02;54.13
69944;DHT22;57257;48.408;-4.498;2022-07-23T15:42:48;24.04;54.03
69944;DHT22;57257;48.408;-4.498;2022-07-23T15:45:13;23.82;54.42
69944;DHT22;57257;48.408;-4.498;2022-07-23T15:47:40;23.88;54.46
69944;DHT22;57257;48.408;-4.498;2022-07-23T15:50:06;23.91;54.06
69944;DHT22;57257;48.408;-4.498;2022-07-23T15:52:31;23.84;54.28
69944;DHT22;57257;48.408;-4.498;2022-07-23T15:54:57;23.84;54.20
69944;DHT22;57257;48.408;-4.498;2022-07-23T15:57:23;23.89;54.13
69944;DHT22;57257;48.408;-4.498;2022-07-23T15:59:48;23.97;54.15
69944;DHT22;57257;48.408;-4.498;2022-07-23T16:02:14;24.46;53.77
69944;DHT22;57257;48.408;-4.498;2022-07-23T16:04:41;24.94;52.54
69944;DHT22;57257;48.408;-4.498;2022-07-23T16:07:06;25.27;51.41
69944;DHT22;57257;48.408;-4.498;2022-07-23T16:09:32;25.51;50.64
69944;DHT22;57257;48.408;-4.498;2022-07-23T16:11:57;25.81;50.09